Time;durP1;ratioP1;P1;durP2;ratioP2;P2;SDS_P1;SDS_P2;PMS_P1;PMS_P2;Temp;Humidity;BMP_temperature;BMP_pressure;BME280_temperature;BME280_humidity;BME280_pressure;Samples;Min_cycle;Max_cycle;Signal;HPM_P1;HPM_P2
2022/06/20 00:00:52;;;;;;;4.17;2.63;;;;;;;21.16;65.72;99547.09;5012283;28;20205;-74
2022/06/20 00:03:23;;;;;;;2.50;2.30;;;;;;;21.02;66.18;99548.63;5012663;28;20194;-75
2022/06/20 00:05:50;;;;;;;2.43;2.23;;;;;;;21.06;66.20;99548.94;5013237;28;20185;-75
2022/06/20 00:08:17;;;;;;;2.70;2.13;;;;;;;21.01;66.48;99538.91;5012269;28;20256;-75
2022/06/20 00:10:46;;;;;;;3.53;2.30;;;;;;;20.92;66.84;99539.66;5012182;28;20662;-75
2022/06/20 00:13:20;;;;;;;2.50;2.30;;;;;;;20.75;67.19;99539.81;5012366;28;20234;-76
2022/06/20 00:15:50;;;;;;;2.83;2.70;;;;;;;20.65;67.49;99542.44;5012709;28;20190;-75
2022/06/20 00:18:17;;;;;;;5.63;2.10;;;;;;;20.43;68.38;99539.84;5012442;28;20617;-75
2022/06/20 00:20:44;;;;;;;3.13;2.93;;;;;;;20.32;69.25;99534.63;5012340;28;20201;-76
2022/06/20 00:23:11;;;;;;;2.77;2.60;;;;;;;20.25;69.68;99539.41;5012076;28;20210;-74
2022/06/20 00:25:40;;;;;;;3.13;2.47;;;;;;;20.07;70.80;99535.22;5012321;28;20201;-74
2022/06/20 00:28:07;;;;;;;4.03;3.00;;;;;;;19.99;71.25;99534.84;5012104;28;20201;-76
2022/06/20 00:30:34;;;;;;;2.80;2.60;;;;;;;19.95;72.15;99531.03;5011675;28;20661;-74
2022/06/20 00:33:02;;;;;;;5.33;2.63;;;;;;;19.98;72.00;99528.63;5011715;28;20217;-76
2022/06/20 00:35:28;;;;;;;2.90;2.70;;;;;;;19.90;72.43;99528.28;5011834;28;20201;-75
2022/06/20 00:37:58;;;;;;;4.73;3.10;;;;;;;19.86;72.96;99527.19;5011921;28;20548;-75
2022/06/20 00:40:30;;;;;;;3.53;3.23;;;;;;;19.78;73.27;99522.25;5011901;28;20747;-76
2022/06/20 00:42:59;;;;;;;3.73;3.23;;;;;;;19.81;74.23;99521.75;5012086;28;20252;-76
2022/06/20 00:45:29;;;;;;;3.37;2.80;;;;;;;19.95;73.70;99528.34;5011698;28;20626;-75
2022/06/20 00:48:04;;;;;;;2.97;2.70;;;;;;;19.76;75.17;99518.97;5011866;28;20564;-74
2022/06/20 00:50:32;;;;;;;3.53;3.20;;;;;;;19.79;73.82;99529.25;5011933;28;20277;-75
2022/06/20 00:53:08;;;;;;;2.90;2.53;;;;;;;19.77;74.03;99526.00;5012124;28;20222;-76
2022/06/20 00:55:39;;;;;;;8.03;3.20;;;;;;;19.73;74.39;99525.69;5011941;28;20193;-76
2022/06/20 00:58:13;;;;;;;3.33;2.87;;;;;;;19.77;73.92;99528.72;5013008;28;20191;-75
2022/06/20 01:00:42;;;;;;;4.87;2.63;;;;;;;19.84;74.15;99530.13;5011844;28;20241;-75
2022/06/20 01:03:13;;;;;;;3.97;2.77;;;;;;;19.78;74.17;99531.16;5012042;28;20205;-75
2022/06/20 01:05:46;;;;;;;3.57;3.23;;;;;;;19.72;74.38;99524.06;5012145;28;20188;-74
2022/06/20 01:08:16;;;;;;;3.23;2.97;;;;;;;19.68;74.65;99519.44;5012652;28;20190;-74
2022/06/20 01:10:48;;;;;;;2.73;2.53;;;;;;;19.67;75.08;99523.19;5012591;28;20252;-75
2022/06/20 01:13:17;;;;;;;2.90;2.70;;;;;;;19.66;75.09;99518.88;5011591;28;20657;-74
2022/06/20 01:15:46;;;;;;;4.33;2.77;;;;;;;19.73;75.03;99532.97;5014330;28;20198;-74
2022/06/20 01:18:18;;;;;;;2.70;2.50;;;;;;;19.67;74.68;99510.53;5015321;28;20256;-74
2022/06/20 01:20:47;;;;;;;3.23;2.87;;;;;;;19.71;74.85;99511.66;5015429;28;20186;-74
2022/06/20 01:23:26;;;;;;;3.10;2.90;;;;;;;19.72;75.75;99517.84;5015055;28;20201;-73
2022/06/20 01:26:13;;;;;;;3.07;2.63;;;;;;;19.74;75.56;99513.03;5015078;28;20276;-75
2022/06/20 01:28:45;;;;;;;4.63;2.90;;;;;;;19.81;75.12;99516.34;5015601;28;20253;-75
2022/06/20 01:31:14;;;;;;;2.90;2.70;;;;;;;19.84;75.12;99503.16;5014749;28;20653;-74
2022/06/20 01:33:41;;;;;;;3.00;2.80;;;;;;;19.86;75.25;99508.31;5015014;28;20225;-73
2022/06/20 01:38:56;;;;;;;2.50;2.40;;;;;;;19.87;75.37;99502.66;5015192;28;20191;-74
2022/06/20 01:44:09;;;;;;;5.30;3.13;;;;;;;19.90;75.09;99504.03;5015326;28;20665;-75
2022/06/20 01:46:36;;;;;;;2.90;2.70;;;;;;;19.93;75.43;99508.91;5015475;28;20198;-75
2022/06/20 01:49:09;;;;;;;3.03;2.80;;;;;;;19.96;75.29;99508.38;5014831;28;20256;-74
2022/06/20 01:51:43;;;;;;;2.93;2.73;;;;;;;19.90;75.03;99504.03;5015938;28;20193;-74
2022/06/20 01:54:13;;;;;;;2.97;2.87;;;;;;;19.91;75.38;99505.66;5014297;28;20297;-74
2022/06/20 01:56:41;;;;;;;2.40;2.30;;;;;;;19.90;74.91;99504.81;5014578;28;20258;-74
2022/06/20 01:59:14;;;;;;;3.53;2.60;;;;;;;19.90;75.33;99498.63;5014217;28;20225;-74
2022/06/20 02:01:41;;;;;;;2.50;2.30;;;;;;;19.93;75.25;99503.53;5014396;28;20720;-74
2022/06/20 02:04:14;;;;;;;3.47;2.60;;;;;;;19.90;75.27;99501.34;5014843;28;20588;-74
2022/06/20 02:06:41;;;;;;;8.60;3.20;;;;;;;19.94;74.84;99505.16;5014896;28;20259;-74
2022/06/20 02:09:10;;;;;;;3.20;2.70;;;;;;;19.94;74.36;99499.75;5014415;28;20240;-75
2022/06/20 02:11:41;;;;;;;4.47;2.80;;;;;;;19.90;73.29;99496.72;5013954;28;20676;-74
2022/06/20 02:14:13;;;;;;;4.67;3.13;;;;;;;19.85;72.43;99495.91;5014282;28;20234;-73
2022/06/20 02:16:44;;;;;;;2.97;2.57;;;;;;;19.64;72.26;99494.88;5014994;28;20260;-73
2022/06/20 02:19:14;;;;;;;4.30;3.20;;;;;;;19.57;71.65;99498.84;5014130;28;20189;-73
2022/06/20 02:21:44;;;;;;;5.67;3.47;;;;;;;19.44;72.24;99499.25;5014320;28;20219;-74
2022/06/20 02:24:15;;;;;;;11.80;3.97;;;;;;;19.50;72.19;99503.63;5014794;28;20194;-75
2022/06/20 02:26:44;;;;;;;6.23;3.47;;;;;;;19.57;71.23;99504.25;5013099;28;20194;-76
2022/06/20 02:29:23;;;;;;;6.37;3.53;;;;;;;19.47;71.40;99498.72;5013494;28;20664;-73
2022/06/20 02:31:53;;;;;;;7.23;3.33;;;;;;;19.60;71.31;99498.34;5014205;28;20260;-73
2022/06/20 02:34:21;;;;;;;3.40;3.10;;;;;;;19.63;70.64;99501.34;5013559;28;20216;-73
2022/06/20 02:36:49;;;;;;;3.63;2.63;;;;;;;19.68;70.45;99495.16;5013702;28;20735;-73
2022/06/20 02:39:17;;;;;;;4.57;2.47;;;;;;;19.56;70.17;99492.63;5013558;28;20198;-73
2022/06/20 02:41:47;;;;;;;3.93;2.97;;;;;;;19.52;71.09;99490.72;5013606;28;20615;-72
2022/06/20 02:44:17;;;;;;;2.90;2.70;;;;;;;19.44;70.10;99483.09;5013341;28;20739;-74
2022/06/20 02:46:46;;;;;;;4.13;2.50;;;;;;;19.33;71.81;99484.03;5014008;28;20194;-75
2022/06/20 02:49:15;;;;;;;4.70;3.00;;;;;;;19.29;71.12;99488.28;5013462;28;20201;-74
2022/06/20 02:51:47;;;;;;;4.37;2.80;;;;;;;19.26;71.00;99491.47;5014000;28;20198;-73
2022/06/20 02:54:15;;;;;;;3.03;2.73;;;;;;;19.17;71.59;99493.78;5013371;28;20217;-73
2022/06/20 02:56:45;;;;;;;3.30;2.60;;;;;;;19.21;71.37;99488.72;5013429;28;20198;-73
2022/06/20 02:59:18;;;;;;;3.07;2.87;;;;;;;19.13;72.69;99484.59;5013871;28;20209;-74
2022/06/20 03:01:49;;;;;;;4.10;2.53;;;;;;;19.00;72.27;99493.06;5013469;28;20195;-74
2022/06/20 03:04:17;;;;;;;6.20;2.50;;;;;;;18.97;73.22;99488.16;5013509;28;20230;-74
2022/06/20 03:06:54;;;;;;;3.10;2.90;;;;;;;19.03;73.49;99489.03;5013149;28;20203;-74
2022/06/20 03:09:26;;;;;;;3.87;2.70;;;;;;;19.07;72.34;99488.28;5012989;28;20193;-74
2022/06/20 03:11:53;;;;;;;3.50;3.20;;;;;;;19.26;72.92;99484.22;5012990;28;20676;-74
2022/06/20 03:14:25;;;;;;;3.17;2.20;;;;;;;19.74;71.48;99491.47;5013755;28;20227;-74
2022/06/20 03:16:51;;;;;;;2.57;2.37;;;;;;;20.17;68.40;99494.84;5013797;28;20251;-75
2022/06/20 03:19:25;;;;;;;3.63;2.80;;;;;;;20.18;67.63;99495.69;5012922;28;20639;-74
2022/06/20 03:21:54;;;;;;;2.93;2.77;;;;;;;19.98;67.48;99496.28;5013534;28;20216;-74
2022/06/20 03:24:24;;;;;;;2.20;2.10;;;;;;;19.83;68.81;99489.94;5012852;28;20665;-75
2022/06/20 03:26:52;;;;;;;3.60;2.87;;;;;;;19.84;68.08;99497.78;5012592;28;20186;-75
2022/06/20 03:29:21;;;;;;;2.33;2.13;;;;;;;19.86;67.21;99497.53;5013214;28;20197;-75
2022/06/20 03:31:48;;;;;;;2.97;2.47;;;;;;;19.90;68.05;99494.03;5012286;28;20662;-75
2022/06/20 03:34:15;;;;;;;4.23;2.40;;;;;;;19.89;67.69;99491.63;5012113;28;20222;-75
2022/06/20 03:36:46;;;;;;;2.37;2.20;;;;;;;19.89;67.02;99497.00;5012619;28;20658;-75
2022/06/20 03:39:15;;;;;;;4.43;2.43;;;;;;;19.88;67.00;99488.09;5011522;28;20681;-76
2022/06/20 03:41:42;;;;;;;2.47;2.37;;;;;;;19.89;67.89;99491.63;5012887;28;20210;-76
2022/06/20 03:44:15;;;;;;;5.13;2.67;;;;;;;19.98;66.47;99495.47;5012239;28;20205;-76
2022/06/20 03:46:50;;;;;;;3.03;2.43;;;;;;;19.99;66.68;99491.69;5012253;28;20277;-77
2022/06/20 03:49:22;;;;;;;3.63;2.40;;;;;;;20.16;65.92;99503.19;5012319;28;20189;-76
2022/06/20 03:51:56;;;;;;;4.40;2.40;;;;;;;20.26;66.15;99489.81;5011813;28;20272;-75
2022/06/20 03:54:28;;;;;;;2.50;2.27;;;;;;;20.30;65.49;99493.63;5012270;28;20217;-76
2022/06/20 03:57:02;;;;;;;4.40;3.00;;;;;;;20.30;65.72;99499.81;5012051;28;20719;-75
2022/06/20 03:59:35;;;;;;;11.10;3.00;;;;;;;19.96;65.91;99484.13;5012413;28;20605;-75
2022/06/20 04:02:11;;;;;;;4.20;2.80;;;;;;;20.33;66.43;99493.06;5012125;28;20646;-74
2022/06/20 04:04:43;;;;;;;3.23;2.80;;;;;;;21.28;64.04;99493.66;5012100;28;20650;-76
2022/06/20 04:07:17;;;;;;;3.47;2.77;;;;;;;22.50;58.54;99494.34;5013033;28;20193;-77
2022/06/20 04:12:40;;;;;;;20.93;3.27;;;;;;;25.08;49.06;99509.56;5012204;28;20372;-78
2022/06/20 04:15:11;;;;;;;4.57;2.60;;;;;;;25.99;46.32;99519.00;5011985;28;20243;-79
2022/06/20 04:20:42;;;;;;;3.63;2.43;;;;;;;27.76;41.77;99513.47;4986872;28;20196;-80
2022/06/20 04:23:14;;;;;;;4.67;2.37;;;;;;;28.40;40.35;99506.78;5012116;28;20630;-79
2022/06/20 04:25:46;;;;;;;4.77;2.37;;;;;;;28.96;38.68;99509.69;5012310;28;20193;-81
2022/06/20 04:28:23;;;;;;;2.23;2.13;;;;;;;29.72;37.03;99511.84;5012636;28;20195;-79
2022/06/20 04:30:55;;;;;;;4.93;2.43;;;;;;;30.27;34.97;99495.59;5012450;28;20248;-82
2022/06/20 04:33:31;;;;;;;4.03;2.90;;;;;;;30.80;34.99;99504.22;5012312;28;20244;-81
2022/06/20 04:36:21;;;;;;;6.87;2.90;;;;;;;30.86;33.62;99491.94;5012232;28;20275;-73
2022/06/20 04:38:54;;;;;;;4.87;1.50;;;;;;;30.54;37.76;99474.09;5012153;28;20286;-74
2022/06/20 04:41:36;;;;;;;5.23;2.53;;;;;;;31.06;35.58;99481.00;5012040;28;20245;-74
2022/06/20 04:44:10;;;;;;;5.97;1.87;;;;;;;31.53;33.83;99485.31;5012392;28;20277;-75
2022/06/20 04:46:43;;;;;;;6.73;2.27;;;;;;;31.46;33.43;99487.75;5011676;28;20189;-73
2022/06/20 04:49:14;;;;;;;3.23;2.37;;;;;;;31.96;33.72;99488.53;5012267;28;20240;-69
2022/06/20 04:51:45;;;;;;;6.00;2.13;;;;;;;32.30;32.04;99485.50;5015517;28;20681;-76
2022/06/20 04:54:17;;;;;;;5.90;1.97;;;;;;;32.23;32.02;99489.91;5016461;28;20213;-73
2022/06/20 04:56:45;;;;;;;4.90;2.00;;;;;;;32.94;29.86;99485.75;5015366;28;20209;-73
2022/06/20 04:59:17;;;;;;;4.90;1.97;;;;;;;33.03;31.05;99492.78;5016182;28;20198;-73
2022/06/20 05:01:44;;;;;;;11.43;2.20;;;;;;;33.18;30.37;99496.78;5015026;28;20610;-72
2022/06/20 05:04:23;;;;;;;4.07;1.67;;;;;;;33.31;30.66;99481.84;5015645;28;20205;-73
2022/06/20 05:06:52;;;;;;;7.00;2.10;;;;;;;33.35;30.25;99491.06;5014467;28;20190;-73
2022/06/20 05:09:24;;;;;;;6.63;2.00;;;;;;;33.67;30.19;99486.56;5013654;28;20202;-73
2022/06/20 05:11:58;;;;;;;4.53;2.17;;;;;;;33.93;28.94;99486.97;5015547;28;20182;-73
2022/06/20 05:14:31;;;;;;;10.93;2.70;;;;;;;33.82;29.17;99483.09;5015977;28;20747;-72
2022/06/20 05:16:58;;;;;;;4.97;1.90;;;;;;;33.79;29.45;99468.03;5015351;28;20604;-73
2022/06/20 05:19:32;;;;;;;5.37;2.10;;;;;;;33.90;29.42;99471.94;5015297;28;20264;-73
2022/06/20 05:22:01;;;;;;;4.73;1.77;;;;;;;33.80;29.51;99479.88;5015775;28;20190;-73
2022/06/20 05:24:33;;;;;;;3.23;1.97;;;;;;;34.23;28.58;99474.44;5014836;28;20202;-73
2022/06/20 05:27:06;;;;;;;6.30;1.80;;;;;;;33.93;29.35;99487.78;5015724;28;20190;-74
2022/06/20 05:29:36;;;;;;;8.70;2.20;;;;;;;34.19;28.78;99490.06;5015450;28;20186;-75
2022/06/20 05:32:07;;;;;;;4.50;2.27;;;;;;;34.23;28.99;99485.47;5013447;28;20206;-74
2022/06/20 05:34:45;;;;;;;7.20;2.37;;;;;;;34.25;28.79;99486.72;5003603;28;20698;-73
2022/06/20 05:37:17;;;;;;;4.57;1.98;;;;;;;34.35;28.27;99485.44;5005801;28;20269;-72
2022/06/20 05:39:49;;;;;;;10.25;2.05;;;;;;;34.34;28.12;99478.31;5015153;28;20186;-73
2022/06/20 05:42:18;;;;;;;6.30;1.83;;;;;;;34.34;27.89;99478.31;4997315;28;20608;-74
2022/06/20 05:44:45;;;;;;;4.67;1.87;;;;;;;34.09;28.81;99483.09;4995063;28;20203;-74
2022/06/20 05:47:19;;;;;;;3.10;1.70;;;;;;;34.13;28.40;99477.72;4994959;28;20265;-75
2022/06/20 05:49:52;;;;;;;2.53;2.10;;;;;;;34.10;28.45;99473.69;5005640;28;20193;-74
2022/06/20 05:52:22;;;;;;;3.08;1.77;;;;;;;34.48;27.02;99473.16;5014231;28;20663;-74
2022/06/20 05:54:54;;;;;;;1.90;1.70;;;;;;;34.10;28.29;99467.38;5014662;28;20230;-74
2022/06/20 05:57:24;;;;;;;6.20;1.67;;;;;;;33.95;28.43;99465.34;5013585;28;20362;-75
2022/06/20 05:59:56;;;;;;;3.20;1.60;;;;;;;34.02;28.24;99476.59;5009387;28;20194;-76
2022/06/20 06:02:27;;;;;;;12.43;2.50;;;;;;;34.01;28.23;99458.44;5013261;28;20225;-73
2022/06/20 06:05:01;;;;;;;2.22;1.55;;;;;;;34.00;28.41;99456.84;5014410;28;20272;-74
2022/06/20 06:07:33;;;;;;;3.15;1.50;;;;;;;33.79;28.18;99461.69;5000020;28;20190;-75
2022/06/20 06:10:06;;;;;;;15.85;2.38;;;;;;;33.68;28.37;99466.91;4994332;28;20250;-75
2022/06/20 06:12:38;;;;;;;4.40;1.40;;;;;;;33.81;28.22;99462.97;4994449;28;20227;-76
2022/06/20 06:15:14;;;;;;;2.13;1.60;;;;;;;33.82;27.81;99459.09;5001155;28;20213;-73
2022/06/20 06:17:46;;;;;;;3.17;1.63;;;;;;;33.94;28.30;99455.47;5011624;28;20193;-74
2022/06/20 06:20:18;;;;;;;2.92;1.42;;;;;;;33.73;28.59;99452.09;5013013;28;20193;-74
2022/06/20 06:22:48;;;;;;;2.00;1.50;;;;;;;33.64;28.61;99452.22;5013639;28;20697;-74
2022/06/20 06:25:27;;;;;;;2.03;1.50;;;;;;;33.47;28.95;99449.72;5014067;28;20307;-74
2022/06/20 06:27:57;;;;;;;7.60;1.90;;;;;;;33.56;28.62;99446.84;5014071;28;20189;-74
2022/06/20 06:30:29;;;;;;;2.80;1.90;;;;;;;33.75;28.42;99444.25;5013986;28;20244;-74
2022/06/20 06:33:00;;;;;;;2.22;1.30;;;;;;;33.71;29.04;99449.66;5013277;28;20260;-75
2022/06/20 06:35:33;;;;;;;5.28;1.52;;;;;;;33.57;29.21;99442.94;5009385;28;20206;-75
2022/06/20 06:38:01;;;;;;;1.70;1.60;;;;;;;33.59;28.99;99440.66;5012756;28;20190;-75
2022/06/20 06:40:34;;;;;;;20.77;2.95;;;;;;;33.76;28.92;99443.13;5012204;28;20690;-69
2022/06/20 06:43:11;;;;;;;2.22;1.73;;;;;;;33.97;28.11;99436.28;5011055;28;20191;-71
2022/06/20 06:45:38;;;;;;;6.75;1.88;;;;;;;33.97;28.02;99444.53;5010001;28;20227;-69
2022/06/20 06:48:12;;;;;;;59.33;5.18;;;;;;;33.81;28.67;99420.81;5012255;28;20251;-69
2022/06/20 06:50:45;;;;;;;4.90;1.85;;;;;;;33.75;29.64;99428.53;5008635;28;20186;-72
2022/06/20 06:53:18;;;;;;;2.90;1.80;;;;;;;33.53;30.06;99422.75;5012314;28;20194;-70
2022/06/20 06:55:49;;;;;;;2.58;1.80;;;;;;;33.48;30.36;99428.50;4993244;28;20219;-68
2022/06/20 06:58:22;;;;;;;11.25;2.90;;;;;;;33.45;29.51;99423.69;4991098;28;20190;-67
2022/06/20 07:00:54;;;;;;;14.20;2.45;;;;;;;33.32;30.19;99416.59;4990182;28;20651;-68
2022/06/20 07:03:25;;;;;;;3.87;1.63;;;;;;;33.27;30.77;99407.41;4990674;28;20190;-68
2022/06/20 07:05:58;;;;;;;1.50;1.40;;;;;;;33.17;30.86;99418.09;4990546;28;20625;-67
2022/06/20 07:08:29;;;;;;;3.30;1.90;;;;;;;33.12;30.90;99408.09;4990553;28;20194;-67
2022/06/20 07:11:00;;;;;;;9.37;2.53;;;;;;;33.16;31.10;99411.75;4990190;28;20202;-73
2022/06/20 07:13:37;;;;;;;7.37;2.40;;;;;;;33.17;30.75;99402.38;4989919;28;20694;-72
2022/06/20 07:16:12;;;;;;;4.83;1.97;;;;;;;33.08;31.63;99407.19;5005521;28;20213;-72
2022/06/20 07:18:44;;;;;;;3.90;2.20;;;;;;;33.05;31.89;99394.13;5009301;28;20712;-71
2022/06/20 07:21:17;;;;;;;3.07;1.97;;;;;;;33.02;32.02;99394.00;5008536;28;20684;-70
2022/06/20 07:23:46;;;;;;;14.53;2.27;;;;;;;33.04;30.99;99395.25;5010398;28;20740;-68
2022/06/20 07:26:16;;;;;;;9.90;2.70;;;;;;;32.82;30.39;99390.25;5007481;28;20214;-70
2022/06/20 07:28:47;;;;;;;3.27;2.27;;;;;;;32.97;30.75;99385.97;5010206;28;20576;-71
2022/06/20 07:31:19;;;;;;;3.70;1.70;;;;;;;32.96;31.60;99379.66;5008984;28;20260;-70
2022/06/20 07:33:50;;;;;;;6.00;1.97;;;;;;;32.92;30.19;99378.75;5009179;28;20194;-69
2022/06/20 07:36:23;;;;;;;6.03;1.70;;;;;;;32.88;30.77;99380.63;5011905;28;20214;-69
2022/06/20 07:38:55;;;;;;;4.40;1.90;;;;;;;33.12;31.23;99383.31;5011733;28;20202;-69
2022/06/20 07:41:27;;;;;;;2.70;2.00;;;;;;;33.04;29.84;99380.72;5010721;28;20624;-69
2022/06/20 07:44:01;;;;;;;2.30;2.10;;;;;;;32.85;31.71;99378.53;5011271;28;20739;-68
2022/06/20 07:46:34;;;;;;;11.50;2.77;;;;;;;32.98;31.05;99371.88;5010733;28;20252;-71
2022/06/20 07:49:06;;;;;;;2.07;1.73;;;;;;;32.83;31.65;99367.06;5004057;28;20178;-69
2022/06/20 07:51:39;;;;;;;4.10;1.73;;;;;;;33.02;31.96;99360.97;4991683;28;20277;-69
2022/06/20 07:54:12;;;;;;;3.30;2.00;;;;;;;32.94;30.16;99359.94;4990947;28;20711;-69
2022/06/20 07:56:46;;;;;;;1.87;1.63;;;;;;;32.96;31.71;99354.88;4991543;28;20221;-71
2022/06/20 07:59:18;;;;;;;3.77;2.20;;;;;;;32.93;31.53;99361.13;4990772;28;20610;-70
2022/06/20 08:01:51;;;;;;;5.60;1.80;;;;;;;32.99;31.04;99348.69;4990224;28;20206;-71
2022/06/20 08:04:27;;;;;;;2.00;1.80;;;;;;;32.96;31.51;99352.13;4990650;28;20190;-68
2022/06/20 08:07:00;;;;;;;2.13;1.63;;;;;;;32.84;31.56;99351.38;5003187;28;20217;-70
2022/06/20 08:09:33;;;;;;;2.93;1.87;;;;;;;32.78;31.82;99349.94;5010037;28;20190;-67
2022/06/20 08:12:03;;;;;;;5.43;2.73;;;;;;;32.88;31.55;99344.84;5010096;28;20182;-68
2022/06/20 08:14:39;;;;;;;3.57;2.10;;;;;;;32.95;31.43;99341.50;5009595;28;20229;-69
2022/06/20 08:17:08;;;;;;;6.10;1.90;;;;;;;33.03;31.35;99349.59;4990557;28;20218;-70
2022/06/20 08:19:36;;;;;;;4.00;1.70;;;;;;;33.17;31.28;99336.28;4989682;28;20191;-71
2022/06/20 08:22:10;;;;;;;3.47;1.97;;;;;;;33.30;30.76;99329.59;4990660;28;20281;-71
2022/06/20 08:24:45;;;;;;;2.00;1.90;;;;;;;33.52;30.65;99335.75;5011588;28;20267;-70
2022/06/20 08:27:19;;;;;;;2.17;1.80;;;;;;;33.41;30.22;99342.88;5013554;28;20280;-72
2022/06/20 08:29:51;;;;;;;2.83;1.90;;;;;;;33.44;30.52;99344.94;5014624;28;20197;-68
2022/06/20 08:32:24;;;;;;;3.97;1.80;;;;;;;33.42;30.48;99334.28;5006771;28;20191;-68
2022/06/20 08:34:57;;;;;;;3.10;1.60;;;;;;;33.33;30.41;99332.81;4995441;28;20253;-69
2022/06/20 08:37:30;;;;;;;4.67;1.90;;;;;;;33.33;29.78;99332.81;5009939;28;20591;-68
2022/06/20 08:40:07;;;;;;;1.77;1.40;;;;;;;33.08;28.63;99340.31;5008473;28;20186;-68
2022/06/20 08:42:55;;;;;;;2.87;1.93;;;;;;;33.12;29.75;99333.75;5015150;28;20260;-68
2022/06/20 08:45:47;;;;;;;2.10;1.52;;;;;;;33.45;29.58;99341.03;4998939;28;20195;-69
2022/06/20 08:48:44;;;;;;;1.80;1.40;;;;;;;33.40;28.19;99338.53;5034343;28;20251;-68
2022/06/20 08:52:10;;;;;;;1.58;1.40;;;;;;;33.33;27.54;99338.31;4982485;28;20814;-68
2022/06/20 08:54:58;;;;;;;4.63;1.40;;;;;;;33.43;28.09;99335.88;4994664;28;20199;-70
2022/06/20 08:57:37;;;;;;;3.43;1.83;;;;;;;33.44;27.89;99334.75;4994235;28;20595;-69
2022/06/20 09:00:10;;;;;;;2.22;1.38;;;;;;;33.42;27.19;99341.72;4993722;28;20246;-69
2022/06/20 09:03:09;;;;;;;3.13;1.50;;;;;;;33.56;28.39;99342.16;4994447;28;20197;-70
2022/06/20 09:05:55;;;;;;;1.73;1.40;;;;;;;33.61;28.90;99333.63;4994126;28;20574;-68
2022/06/20 09:08:38;;;;;;;2.80;1.67;;;;;;;33.60;28.57;99334.78;4995086;28;20187;-68
2022/06/20 09:11:23;;;;;;;2.03;1.60;;;;;;;33.66;28.17;99325.09;4995554;28;20182;-72
2022/06/20 09:14:33;;;;;;;2.08;1.70;;;;;;;33.74;28.62;99315.88;4998654;28;20334;-72
2022/06/20 09:17:10;;;;;;;4.10;1.70;;;;;;;33.36;29.27;99321.09;4994455;28;20226;-71
2022/06/20 09:20:00;;;;;;;2.20;1.73;;;;;;;32.89;29.23;99324.41;5013252;28;20190;-71
2022/06/20 09:22:41;;;;;;;1.27;1.20;;;;;;;32.66;29.28;99326.00;5013360;28;20183;-70
2022/06/20 09:25:20;;;;;;;2.33;1.17;;;;;;;32.52;28.09;99320.06;5013621;28;20182;-73
2022/06/20 09:27:56;;;;;;;2.10;1.70;;;;;;;32.54;27.70;99315.00;5011984;28;20189;-71
2022/06/20 09:30:33;;;;;;;13.40;2.80;;;;;;;32.71;28.65;99305.72;5010186;28;20263;-72
2022/06/20 09:33:38;;;;;;;2.47;1.60;;;;;;;32.61;27.55;99306.97;5009521;28;20190;-70
2022/06/20 09:36:26;;;;;;;4.43;1.47;;;;;;;32.98;26.03;99305.81;5014093;28;20268;-69
2022/06/20 09:39:08;;;;;;;1.10;1.10;;;;;;;33.12;24.87;99295.19;5013710;28;20608;-70
2022/06/20 09:41:40;;;;;;;19.13;2.63;;;;;;;33.25;26.67;99299.53;4999019;28;20183;-71
2022/06/20 09:44:21;;;;;;;2.55;1.20;;;;;;;33.03;26.83;99297.31;4993093;28;20191;-71
2022/06/20 09:46:58;;;;;;;2.78;0.98;;;;;;;33.29;25.90;99294.94;5002610;28;20304;-71
2022/06/20 09:49:35;;;;;;;1.33;1.25;;;;;;;33.52;26.14;99299.91;5002228;28;20647;-73
2022/06/20 09:52:10;;;;;;;1.80;1.20;;;;;;;33.42;27.85;99281.13;4993462;28;20287;-73
2022/06/20 09:54:50;;;;;;;1.65;1.10;;;;;;;33.59;27.74;99281.63;4993311;28;20722;-73
2022/06/20 09:57:28;;;;;;;4.00;1.60;;;;;;;33.73;27.08;99289.47;4993173;28;20210;-72
2022/06/20 10:00:05;;;;;;;2.55;1.13;;;;;;;33.45;24.96;99285.94;4992573;28;20253;-74
2022/06/20 10:02:41;;;;;;;2.33;0.98;;;;;;;33.60;24.49;99293.47;4999868;28;20184;-72
2022/06/20 10:05:19;;;;;;;0.80;0.80;;;;;;;33.84;23.76;99298.88;5031983;28;20239;-72
2022/06/20 10:07:53;;;;;;;1.05;1.05;;;;;;;33.65;23.92;99284.94;5033255;28;20255;-71
2022/06/20 10:10:29;;;;;;;11.68;1.63;;;;;;;33.57;25.99;99274.88;5032218;28;20190;-72
2022/06/20 10:13:00;;;;;;;2.03;1.10;;;;;;;32.95;24.16;99280.94;5032991;28;20708;-72
2022/06/20 10:15:38;;;;;;;5.00;1.20;;;;;;;32.80;24.04;99260.44;5021786;28;20740;-73
2022/06/20 10:18:16;;;;;;;2.93;1.33;;;;;;;32.55;24.72;99269.84;4992918;28;20183;-73
2022/06/20 10:20:51;;;;;;;1.57;1.00;;;;;;;31.94;24.25;99262.72;5000067;28;20256;-72
2022/06/20 10:23:44;;;;;;;4.00;1.10;;;;;;;32.26;23.39;99250.81;5011640;28;20244;-74
2022/06/20 10:26:26;;;;;;;14.23;2.97;;;;;;;32.53;23.79;99255.63;5010844;28;20189;-72
2022/06/20 10:29:02;;;;;;;6.13;1.53;;;;;;;32.70;24.34;99249.88;5011847;28;20194;-72
2022/06/20 10:31:41;;;;;;;2.13;1.23;;;;;;;32.87;23.46;99248.84;5010104;28;20729;-72
2022/06/20 10:34:13;;;;;;;2.78;1.20;;;;;;;32.97;23.50;99248.34;4995545;28;20637;-72
2022/06/20 10:36:50;;;;;;;1.27;1.20;;;;;;;33.06;22.80;99254.50;5005451;28;20293;-72
2022/06/20 10:39:25;;;;;;;2.47;1.20;;;;;;;32.80;22.84;99254.94;5013027;28;20236;-72
2022/06/20 10:42:04;;;;;;;5.60;1.50;;;;;;;32.30;23.55;99246.25;5012723;28;20218;-71
2022/06/20 10:44:48;;;;;;;1.27;1.17;;;;;;;32.46;23.99;99249.91;5013442;28;20188;-73
2022/06/20 10:47:21;;;;;;;2.73;1.53;;;;;;;32.35;24.46;99242.47;5020763;28;20693;-73
2022/06/20 10:50:13;;;;;;;1.57;1.20;;;;;;;32.62;24.79;99231.53;5019422;28;20182;-72
2022/06/20 10:52:53;;;;;;;4.82;2.00;;;;;;;32.58;24.38;99236.13;5028804;28;20197;-73
2022/06/20 10:55:34;;;;;;;1.93;1.00;;;;;;;32.69;22.88;99231.78;5031701;28;20193;-72
2022/06/20 10:58:13;;;;;;;6.93;1.50;;;;;;;32.87;23.55;99229.59;5031888;28;20213;-73
2022/06/20 11:00:46;;;;;;;1.40;1.17;;;;;;;32.87;23.00;99227.63;5031070;28;20711;-73
2022/06/20 11:03:57;;;;;;;0.80;0.80;;;;;;;32.81;23.19;99218.00;5028673;28;20611;-73
2022/06/20 11:06:36;;;;;;;1.80;1.03;;;;;;;32.78;23.16;99221.44;4982492;28;20203;-72
2022/06/20 11:09:10;;;;;;;1.03;1.03;;;;;;;32.89;22.39;99208.81;5030033;28;20807;-73
2022/06/20 11:11:47;;;;;;;3.10;1.53;;;;;;;33.09;23.62;99212.50;5009403;28;20665;-74
2022/06/20 11:14:24;;;;;;;1.35;1.05;;;;;;;32.85;23.47;99202.41;5011890;28;20236;-72
2022/06/20 11:17:01;;;;;;;1.20;1.10;;;;;;;32.32;23.18;99210.97;4999531;28;20210;-73
2022/06/20 11:19:41;;;;;;;1.63;1.10;;;;;;;31.93;23.00;99203.38;4996083;28;20655;-74
2022/06/20 11:22:23;;;;;;;1.97;1.20;;;;;;;32.16;23.56;99206.47;4992718;28;20190;-73
2022/06/20 11:25:02;;;;;;;3.10;1.30;;;;;;;32.27;23.50;99205.69;5011382;28;20186;-74
2022/06/20 11:27:43;;;;;;;0.97;0.97;;;;;;;31.54;24.25;99205.94;5011465;28;20201;-74
2022/06/20 11:30:19;;;;;;;3.80;1.40;;;;;;;31.99;24.16;99199.28;5010714;28;20182;-73
2022/06/20 11:33:03;;;;;;;3.03;1.30;;;;;;;32.21;23.84;99193.31;5012177;28;20189;-73
2022/06/20 11:35:39;;;;;;;2.90;1.27;;;;;;;32.03;24.97;99191.13;5009951;28;20589;-74
2022/06/20 11:38:22;;;;;;;1.87;1.00;;;;;;;32.16;23.97;99190.78;5011495;28;20210;-73
2022/06/20 11:40:57;;;;;;;1.23;1.10;;;;;;;32.12;24.12;99189.06;5001766;28;20195;-74
2022/06/20 11:43:49;;;;;;;1.70;1.10;;;;;;;31.76;23.40;99194.53;5001225;28;20205;-75
2022/06/20 11:46:42;;;;;;;3.20;1.00;;;;;;;31.88;24.24;99192.63;5010080;28;20454;-73
2022/06/20 11:49:23;;;;;;;1.53;1.30;;;;;;;31.76;24.18;99184.38;5015137;28;20237;-73
2022/06/20 11:51:57;;;;;;;1.23;1.13;;;;;;;31.96;24.41;99180.72;5009921;28;20190;-74
2022/06/20 11:54:37;;;;;;;1.73;1.30;;;;;;;31.83;24.93;99179.13;5011098;28;20186;-74
2022/06/20 11:57:13;;;;;;;1.40;1.30;;;;;;;32.07;24.85;99178.31;5010459;28;20210;-73
2022/06/20 11:59:47;;;;;;;3.17;1.10;;;;;;;31.94;24.18;99176.72;5009489;28;20621;-75
2022/06/20 12:02:49;;;;;;;3.70;1.33;;;;;;;31.81;23.97;99172.38;5010983;28;20186;-73
2022/06/20 12:05:32;;;;;;;1.07;1.07;;;;;;;31.80;24.18;99170.78;5010747;28;20723;-73
2022/06/20 12:08:10;;;;;;;2.67;1.00;;;;;;;31.94;23.94;99172.03;5010957;28;20280;-73
2022/06/20 12:10:42;;;;;;;2.57;1.00;;;;;;;31.94;23.84;99160.22;5011480;28;20186;-74
2022/06/20 12:13:26;;;;;;;3.87;1.30;;;;;;;31.75;24.67;99157.22;5010796;28;20247;-73
2022/06/20 12:15:59;;;;;;;0.93;0.93;;;;;;;31.85;24.43;99154.84;5005317;28;20650;-75
2022/06/20 12:23:18;;;;;;;2.60;1.27;;;;;;;31.89;25.09;99147.50;4990306;28;20653;-74